createdAt,value
2018-09-19T00:00:50.057Z,9.20
2018-09-19T00:15:49.833Z,9.48
2018-09-19T00:30:49.728Z,9.58
2018-09-19T00:45:50.227Z,8.43
2018-09-19T01:00:51.358Z,7.20
2018-09-19T01:15:51.301Z,8.73
2018-09-19T01:30:50.797Z,12.13
2018-09-19T01:45:52.058Z,12.35
2018-09-19T02:00:52.640Z,10.90
2018-09-19T02:15:50.672Z,11.70
2018-09-19T02:30:50.660Z,10.10
2018-09-19T02:45:51.049Z,9.15
2018-09-19T03:00:51.066Z,9.78
2018-09-19T03:15:56.645Z,7.85
2018-09-19T03:30:51.031Z,9.10
2018-09-19T03:45:53.026Z,9.93
2018-09-19T04:00:51.460Z,11.40
2018-09-19T04:15:51.734Z,10.40
2018-09-19T04:30:53.598Z,10.45
2018-09-19T04:45:51.179Z,10.72
2018-09-19T05:00:50.698Z,11.30
2018-09-19T05:15:50.786Z,11.00
2018-09-19T05:30:50.311Z,9.68
2018-09-19T05:45:52.073Z,10.15
2018-09-19T06:00:52.298Z,12.37
2018-09-19T06:15:51.280Z,9.48
2018-09-19T06:30:51.228Z,9.65
2018-09-19T06:45:54.255Z,9.15
2018-09-19T07:00:50.532Z,9.65
2018-09-19T07:15:51.036Z,11.00
2018-09-19T07:30:52.538Z,10.58
2018-09-19T07:45:50.509Z,9.73
2018-09-19T08:00:52.551Z,9.30
2018-09-19T08:15:53.443Z,8.10
2018-09-19T08:30:51.332Z,8.60
2018-09-19T08:45:56.807Z,7.73
2018-09-19T09:00:51.174Z,7.00
2018-09-19T09:15:52.199Z,7.70
2018-09-19T09:30:50.606Z,7.47
2018-09-19T09:45:51.175Z,7.17
2018-09-19T10:00:52.536Z,7.63
2018-09-19T10:15:50.819Z,8.07
2018-09-19T10:30:50.963Z,6.40
2018-09-19T10:45:51.552Z,6.43
2018-09-19T11:00:50.797Z,7.20
2018-09-19T11:15:52.825Z,6.53
2018-09-19T11:30:50.738Z,5.47
2018-09-19T11:45:50.706Z,6.05
2018-09-19T12:00:51.327Z,6.10
2018-09-19T12:15:51.051Z,5.42
2018-09-19T12:30:51.183Z,5.50
2018-09-19T12:45:51.656Z,5.60
2018-09-19T13:00:49.919Z,4.75
2018-09-19T13:15:50.404Z,5.25
2018-09-19T13:30:49.929Z,5.47
2018-09-19T13:45:51.496Z,5.30
2018-09-19T14:00:51.180Z,5.95
2018-09-19T14:15:50.827Z,5.95
2018-09-19T14:30:50.838Z,6.35
2018-09-19T14:45:51.073Z,6.37
2018-09-19T15:00:51.021Z,5.90
2018-09-19T15:15:50.863Z,6.22
2018-09-19T15:30:50.775Z,5.20
2018-09-19T15:45:50.799Z,6.25
2018-09-19T16:00:50.357Z,6.10
2018-09-19T16:15:52.343Z,5.83
2018-09-19T16:30:50.792Z,6.25
2018-09-19T16:45:51.147Z,5.72
